sensor_id;sensor_type;location;lat;lon;timestamp;temperature;humidity
18083;DHT22;9168;51.194;6.840;2022-08-11T00:02:26;21.20;92.00
18083;DHT22;9168;51.194;6.840;2022-08-11T00:04:55;21.10;92.20
18083;DHT22;9168;51.194;6.840;2022-08-11T00:07:25;21.00;92.20
18083;DHT22;9168;51.194;6.840;2022-08-11T00:09:53;21.00;92.20
18083;DHT22;9168;51.194;6.840;2022-08-11T00:12:21;21.00;92.40
18083;DHT22;9168;51.194;6.840;2022-08-11T00:14:56;20.90;92.40
18083;DHT22;9168;51.194;6.840;2022-08-11T00:17:27;20.90;92.60
18083;DHT22;9168;51.194;6.840;2022-08-11T00:20:01;20.90;92.70
18083;DHT22;9168;51.194;6.840;2022-08-11T00:22:31;20.80;92.80
18083;DHT22;9168;51.194;6.840;2022-08-11T00:24:59;20.80;92.90
18083;DHT22;9168;51.194;6.840;2022-08-11T00:27:35;20.80;93.00
18083;DHT22;9168;51.194;6.840;2022-08-11T00:30:03;20.70;93.10
18083;DHT22;9168;51.194;6.840;2022-08-11T00:32:31;20.70;93.10
18083;DHT22;9168;51.194;6.840;2022-08-11T00:34:59;20.60;93.40
18083;DHT22;9168;51.194;6.840;2022-08-11T00:37:27;20.60;93.50
18083;DHT22;9168;51.194;6.840;2022-08-11T00:39:56;20.50;93.40
18083;DHT22;9168;51.194;6.840;2022-08-11T00:42:31;20.50;93.70
18083;DHT22;9168;51.194;6.840;2022-08-11T00:45:04;20.50;93.70
18083;DHT22;9168;51.194;6.840;2022-08-11T00:47:42;20.40;93.70
18083;DHT22;9168;51.194;6.840;2022-08-11T00:50:16;20.40;93.90
18083;DHT22;9168;51.194;6.840;2022-08-11T00:53:04;20.30;93.70
18083;DHT22;9168;51.194;6.840;2022-08-11T00:56:01;20.30;93.80
18083;DHT22;9168;51.194;6.840;2022-08-11T01:01:58;20.20;94.60
18083;DHT22;9168;51.194;6.840;2022-08-11T01:05:15;20.20;94.30
18083;DHT22;9168;51.194;6.840;2022-08-11T01:08:20;20.10;94.40
18083;DHT22;9168;51.194;6.840;2022-08-11T01:18:07;20.00;94.80
18083;DHT22;9168;51.194;6.840;2022-08-11T01:24:26;19.90;94.60
18083;DHT22;9168;51.194;6.840;2022-08-11T01:27:14;19.90;94.80
18083;DHT22;9168;51.194;6.840;2022-08-11T01:33:26;19.80;95.20
18083;DHT22;9168;51.194;6.840;2022-08-11T01:39:44;19.80;95.50
18083;DHT22;9168;51.194;6.840;2022-08-11T01:45:49;19.70;95.60
18083;DHT22;9168;51.194;6.840;2022-08-11T01:48:26;19.70;96.00
18083;DHT22;9168;51.194;6.840;2022-08-11T01:51:16;19.60;96.30
18083;DHT22;9168;51.194;6.840;2022-08-11T01:53:52;19.60;96.50
18083;DHT22;9168;51.194;6.840;2022-08-11T01:59:18;19.50;96.50
18083;DHT22;9168;51.194;6.840;2022-08-11T02:02:21;19.50;96.60
18083;DHT22;9168;51.194;6.840;2022-08-11T02:05:19;19.50;96.80
18083;DHT22;9168;51.194;6.840;2022-08-11T02:07:57;19.40;97.00
18083;DHT22;9168;51.194;6.840;2022-08-11T02:10:30;19.40;97.20
18083;DHT22;9168;51.194;6.840;2022-08-11T02:13:34;19.30;97.40
18083;DHT22;9168;51.194;6.840;2022-08-11T02:16:20;19.40;97.70
18083;DHT22;9168;51.194;6.840;2022-08-11T02:18:51;19.30;97.70
18083;DHT22;9168;51.194;6.840;2022-08-11T02:21:45;19.30;98.10
18083;DHT22;9168;51.194;6.840;2022-08-11T02:24:40;19.20;98.00
18083;DHT22;9168;51.194;6.840;2022-08-11T04:08:52;18.20;99.90
18083;DHT22;9168;51.194;6.840;2022-08-11T04:14:55;18.10;99.90
18083;DHT22;9168;51.194;6.840;2022-08-11T04:18:18;18.10;99.90
18083;DHT22;9168;51.194;6.840;2022-08-11T04:27:16;17.90;99.90
18083;DHT22;9168;51.194;6.840;2022-08-11T04:29:56;18.00;99.90
18083;DHT22;9168;51.194;6.840;2022-08-11T04:32:48;17.90;99.90
18083;DHT22;9168;51.194;6.840;2022-08-11T04:35:32;17.90;99.90
18083;DHT22;9168;51.194;6.840;2022-08-11T04:38:37;17.90;99.90
18083;DHT22;9168;51.194;6.840;2022-08-11T04:41:32;18.00;99.90
18083;DHT22;9168;51.194;6.840;2022-08-11T04:44:40;17.90;99.90
18083;DHT22;9168;51.194;6.840;2022-08-11T04:47:28;17.90;99.90
18083;DHT22;9168;51.194;6.840;2022-08-11T04:50:25;18.00;99.90
18083;DHT22;9168;51.194;6.840;2022-08-11T04:53:25;17.90;99.90
18083;DHT22;9168;51.194;6.840;2022-08-11T04:56:15;17.90;99.90
18083;DHT22;9168;51.194;6.840;2022-08-11T05:05:33;17.90;99.90
18083;DHT22;9168;51.194;6.840;2022-08-11T05:11:34;17.90;99.90
18083;DHT22;9168;51.194;6.840;2022-08-11T05:14:26;17.90;99.90
18083;DHT22;9168;51.194;6.840;2022-08-11T05:17:15;18.00;99.90
18083;DHT22;9168;51.194;6.840;2022-08-11T05:20:08;17.90;99.90
18083;DHT22;9168;51.194;6.840;2022-08-11T05:22:53;18.00;99.90
18083;DHT22;9168;51.194;6.840;2022-08-11T05:25:43;18.00;99.90
18083;DHT22;9168;51.194;6.840;2022-08-11T05:28:32;18.10;99.90
18083;DHT22;9168;51.194;6.840;2022-08-11T05:31:21;18.10;99.90
18083;DHT22;9168;51.194;6.840;2022-08-11T05:34:10;18.10;99.90
18083;DHT22;9168;51.194;6.840;2022-08-11T05:37:01;18.20;99.90
18083;DHT22;9168;51.194;6.840;2022-08-11T05:39:35;18.20;99.90
18083;DHT22;9168;51.194;6.840;2022-08-11T05:42:22;18.30;99.90
18083;DHT22;9168;51.194;6.840;2022-08-11T05:45:11;18.30;99.90
18083;DHT22;9168;51.194;6.840;2022-08-11T05:47:58;18.40;99.90
18083;DHT22;9168;51.194;6.840;2022-08-11T05:50:50;18.50;99.90
18083;DHT22;9168;51.194;6.840;2022-08-11T05:53:45;18.60;99.90
18083;DHT22;9168;51.194;6.840;2022-08-11T05:56:32;18.60;99.90
18083;DHT22;9168;51.194;6.840;2022-08-11T05:58:59;18.70;99.90
18083;DHT22;9168;51.194;6.840;2022-08-11T06:01:28;18.80;99.90
18083;DHT22;9168;51.194;6.840;2022-08-11T06:04:01;18.90;99.90
18083;DHT22;9168;51.194;6.840;2022-08-11T06:06:47;18.90;99.90
18083;DHT22;9168;51.194;6.840;2022-08-11T06:09:22;19.10;99.90
18083;DHT22;9168;51.194;6.840;2022-08-11T06:11:50;19.20;99.90
18083;DHT22;9168;51.194;6.840;2022-08-11T06:14:19;19.30;99.90
18083;DHT22;9168;51.194;6.840;2022-08-11T06:16:48;19.40;99.90
18083;DHT22;9168;51.194;6.840;2022-08-11T06:19:19;19.60;99.90
18083;DHT22;9168;51.194;6.840;2022-08-11T06:21:48;19.70;99.90
18083;DHT22;9168;51.194;6.840;2022-08-11T06:24:18;19.90;99.90
18083;DHT22;9168;51.194;6.840;2022-08-11T06:26:50;20.10;99.90
18083;DHT22;9168;51.194;6.840;2022-08-11T06:29:17;20.30;99.90
18083;DHT22;9168;51.194;6.840;2022-08-11T06:31:51;20.40;99.90
18083;DHT22;9168;51.194;6.840;2022-08-11T06:34:31;20.60;99.90
18083;DHT22;9168;51.194;6.840;2022-08-11T06:37:13;20.70;99.90
18083;DHT22;9168;51.194;6.840;2022-08-11T06:39:47;20.80;99.90
18083;DHT22;9168;51.194;6.840;2022-08-11T06:42:37;21.00;99.70
18083;DHT22;9168;51.194;6.840;2022-08-11T06:45:15;21.20;99.70
18083;DHT22;9168;51.194;6.840;2022-08-11T06:47:45;21.30;99.80
18083;DHT22;9168;51.194;6.840;2022-08-11T06:50:19;21.50;98.30
18083;DHT22;9168;51.194;6.840;2022-08-11T06:53:05;21.60;97.30
18083;DHT22;9168;51.194;6.840;2022-08-11T06:55:35;21.70;97.00
18083;DHT22;9168;51.194;6.840;2022-08-11T06:58:25;21.80;97.20
18083;DHT22;9168;51.194;6.840;2022-08-11T07:01:14;22.00;96.10
18083;DHT22;9168;51.194;6.840;2022-08-11T07:03:44;22.10;96.20
18083;DHT22;9168;51.194;6.840;2022-08-11T07:06:29;22.10;96.10
18083;DHT22;9168;51.194;6.840;2022-08-11T07:12:39;22.50;94.60
18083;DHT22;9168;51.194;6.840;2022-08-11T07:15:30;22.50;94.80
18083;DHT22;9168;51.194;6.840;2022-08-11T07:18:21;22.60;95.10
18083;DHT22;9168;51.194;6.840;2022-08-11T07:21:09;22.70;93.90
18083;DHT22;9168;51.194;6.840;2022-08-11T07:23:57;22.90;93.10
18083;DHT22;9168;51.194;6.840;2022-08-11T07:26:47;23.00;93.20
18083;DHT22;9168;51.194;6.840;2022-08-11T07:29:32;23.10;92.60
18083;DHT22;9168;51.194;6.840;2022-08-11T07:32:08;23.40;91.70
18083;DHT22;9168;51.194;6.840;2022-08-11T07:34:39;23.60;91.40
18083;DHT22;9168;51.194;6.840;2022-08-11T07:37:11;23.60;92.00
18083;DHT22;9168;51.194;6.840;2022-08-11T07:39:44;23.70;91.50
18083;DHT22;9168;51.194;6.840;2022-08-11T07:42:14;23.60;91.80
18083;DHT22;9168;51.194;6.840;2022-08-11T07:44:43;23.70;91.30
18083;DHT22;9168;51.194;6.840;2022-08-11T07:47:27;23.70;91.30
18083;DHT22;9168;51.194;6.840;2022-08-11T07:50:13;23.80;91.00
18083;DHT22;9168;51.194;6.840;2022-08-11T07:52:58;23.90;90.90
18083;DHT22;9168;51.194;6.840;2022-08-11T07:55:27;24.00;90.50
18083;DHT22;9168;51.194;6.840;2022-08-11T07:57:57;24.10;90.20
18083;DHT22;9168;51.194;6.840;2022-08-11T08:00:44;24.20;90.20
18083;DHT22;9168;51.194;6.840;2022-08-11T08:03:30;24.30;89.60
18083;DHT22;9168;51.194;6.840;2022-08-11T08:06:15;24.40;89.50
18083;DHT22;9168;51.194;6.840;2022-08-11T08:09:00;24.60;89.10
18083;DHT22;9168;51.194;6.840;2022-08-11T08:11:46;24.50;88.50
18083;DHT22;9168;51.194;6.840;2022-08-11T08:14:32;24.60;89.00
18083;DHT22;9168;51.194;6.840;2022-08-11T08:17:17;24.60;89.40
18083;DHT22;9168;51.194;6.840;2022-08-11T08:20:03;24.60;89.10
18083;DHT22;9168;51.194;6.840;2022-08-11T08:22:33;24.70;88.90
18083;DHT22;9168;51.194;6.840;2022-08-11T08:25:01;24.80;88.50
18083;DHT22;9168;51.194;6.840;2022-08-11T08:27:29;24.80;88.10
18083;DHT22;9168;51.194;6.840;2022-08-11T08:29:57;24.90;89.30
18083;DHT22;9168;51.194;6.840;2022-08-11T08:32:42;24.90;87.90
18083;DHT22;9168;51.194;6.840;2022-08-11T08:35:10;25.00;88.10
18083;DHT22;9168;51.194;6.840;2022-08-11T08:37:37;25.10;87.20
18083;DHT22;9168;51.194;6.840;2022-08-11T08:40:06;25.20;86.60
18083;DHT22;9168;51.194;6.840;2022-08-11T08:42:38;25.30;85.90
18083;DHT22;9168;51.194;6.840;2022-08-11T08:45:10;25.30;85.30
18083;DHT22;9168;51.194;6.840;2022-08-11T08:47:41;25.40;86.50
18083;DHT22;9168;51.194;6.840;2022-08-11T08:50:11;25.40;85.00
18083;DHT22;9168;51.194;6.840;2022-08-11T08:52:41;25.50;84.70
18083;DHT22;9168;51.194;6.840;2022-08-11T08:55:16;25.50;84.10
18083;DHT22;9168;51.194;6.840;2022-08-11T08:57:48;25.60;86.10
18083;DHT22;9168;51.194;6.840;2022-08-11T09:00:16;25.60;84.30
18083;DHT22;9168;51.194;6.840;2022-08-11T09:02:44;25.80;83.90
18083;DHT22;9168;51.194;6.840;2022-08-11T09:05:16;25.80;83.80
18083;DHT22;9168;51.194;6.840;2022-08-11T09:07:44;25.90;84.50
18083;DHT22;9168;51.194;6.840;2022-08-11T09:10:13;25.90;84.10
18083;DHT22;9168;51.194;6.840;2022-08-11T09:12:42;25.90;84.10
18083;DHT22;9168;51.194;6.840;2022-08-11T09:15:12;25.90;83.50
18083;DHT22;9168;51.194;6.840;2022-08-11T09:17:43;26.10;83.60
18083;DHT22;9168;51.194;6.840;2022-08-11T09:20:13;26.20;82.10
18083;DHT22;9168;51.194;6.840;2022-08-11T09:22:42;26.20;82.10
18083;DHT22;9168;51.194;6.840;2022-08-11T09:25:29;26.20;82.80
18083;DHT22;9168;51.194;6.840;2022-08-11T09:28:16;26.20;83.30
18083;DHT22;9168;51.194;6.840;2022-08-11T09:30:47;26.20;83.60
18083;DHT22;9168;51.194;6.840;2022-08-11T09:33:18;26.30;81.40
18083;DHT22;9168;51.194;6.840;2022-08-11T09:35:47;26.40;79.80
18083;DHT22;9168;51.194;6.840;2022-08-11T09:38:17;26.50;78.90
18083;DHT22;9168;51.194;6.840;2022-08-11T09:41:02;26.60;79.60
18083;DHT22;9168;51.194;6.840;2022-08-11T09:43:32;26.70;80.60
18083;DHT22;9168;51.194;6.840;2022-08-11T09:46:25;26.80;80.10
18083;DHT22;9168;51.194;6.840;2022-08-11T09:48:56;26.90;81.50
18083;DHT22;9168;51.194;6.840;2022-08-11T09:51:25;26.90;81.30
18083;DHT22;9168;51.194;6.840;2022-08-11T09:53:55;26.90;80.20
18083;DHT22;9168;51.194;6.840;2022-08-11T09:56:25;26.90;78.00
18083;DHT22;9168;51.194;6.840;2022-08-11T09:59:09;27.00;79.60
18083;DHT22;9168;51.194;6.840;2022-08-11T10:01:42;27.00;78.10
18083;DHT22;9168;51.194;6.840;2022-08-11T10:04:14;27.10;75.80
18083;DHT22;9168;51.194;6.840;2022-08-11T10:06:42;27.30;76.90
18083;DHT22;9168;51.194;6.840;2022-08-11T10:09:33;27.30;76.60
18083;DHT22;9168;51.194;6.840;2022-08-11T10:12:03;27.50;76.50
18083;DHT22;9168;51.194;6.840;2022-08-11T10:14:33;27.60;74.90
18083;DHT22;9168;51.194;6.840;2022-08-11T10:17:22;27.70;75.50
18083;DHT22;9168;51.194;6.840;2022-08-11T10:19:50;27.90;75.90
18083;DHT22;9168;51.194;6.840;2022-08-11T10:22:19;28.20;74.40
18083;DHT22;9168;51.194;6.840;2022-08-11T10:25:04;28.40;74.50
18083;DHT22;9168;51.194;6.840;2022-08-11T10:27:49;28.80;74.30
18083;DHT22;9168;51.194;6.840;2022-08-11T10:30:24;29.10;73.60
18083;DHT22;9168;51.194;6.840;2022-08-11T10:33:11;29.40;75.50
18083;DHT22;9168;51.194;6.840;2022-08-11T10:35:57;29.60;71.30
18083;DHT22;9168;51.194;6.840;2022-08-11T10:38:24;29.90;70.90
18083;DHT22;9168;51.194;6.840;2022-08-11T10:40:52;30.00;68.80
18083;DHT22;9168;51.194;6.840;2022-08-11T10:43:36;30.40;69.20
18083;DHT22;9168;51.194;6.840;2022-08-11T10:46:07;30.80;67.80
18083;DHT22;9168;51.194;6.840;2022-08-11T10:48:54;31.30;67.50
18083;DHT22;9168;51.194;6.840;2022-08-11T10:51:23;32.00;65.50
18083;DHT22;9168;51.194;6.840;2022-08-11T10:54:08;32.30;65.70
18083;DHT22;9168;51.194;6.840;2022-08-11T10:56:53;32.60;63.70
18083;DHT22;9168;51.194;6.840;2022-08-11T10:59:37;33.10;62.60
18083;DHT22;9168;51.194;6.840;2022-08-11T11:02:05;33.60;64.10
18083;DHT22;9168;51.194;6.840;2022-08-11T11:04:41;34.00;64.80
18083;DHT22;9168;51.194;6.840;2022-08-11T11:07:17;34.50;64.50
18083;DHT22;9168;51.194;6.840;2022-08-11T11:09:50;34.90;60.70
18083;DHT22;9168;51.194;6.840;2022-08-11T11:12:23;35.10;59.10
18083;DHT22;9168;51.194;6.840;2022-08-11T11:15:09;35.30;59.50
18083;DHT22;9168;51.194;6.840;2022-08-11T11:17:56;35.60;60.20
18083;DHT22;9168;51.194;6.840;2022-08-11T11:20:35;35.90;59.70
18083;DHT22;9168;51.194;6.840;2022-08-11T11:23:06;36.30;59.50
18083;DHT22;9168;51.194;6.840;2022-08-11T11:25:54;36.20;57.10
18083;DHT22;9168;51.194;6.840;2022-08-11T11:28:51;36.50;58.60
18083;DHT22;9168;51.194;6.840;2022-08-11T11:31:29;36.60;56.90
18083;DHT22;9168;51.194;6.840;2022-08-11T11:34:14;36.80;57.60
18083;DHT22;9168;51.194;6.840;2022-08-11T11:36:48;37.10;58.10
18083;DHT22;9168;51.194;6.840;2022-08-11T11:39:18;37.20;58.30
18083;DHT22;9168;51.194;6.840;2022-08-11T11:41:47;37.40;57.40
18083;DHT22;9168;51.194;6.840;2022-08-11T11:44:14;37.60;57.30
18083;DHT22;9168;51.194;6.840;2022-08-11T11:46:43;37.70;55.50
18083;DHT22;9168;51.194;6.840;2022-08-11T11:49:11;37.80;56.50
18083;DHT22;9168;51.194;6.840;2022-08-11T11:51:40;37.90;55.30
18083;DHT22;9168;51.194;6.840;2022-08-11T11:54:09;38.20;55.10
18083;DHT22;9168;51.194;6.840;2022-08-11T11:56:37;38.40;55.50
18083;DHT22;9168;51.194;6.840;2022-08-11T11:59:04;38.40;53.90
18083;DHT22;9168;51.194;6.840;2022-08-11T12:01:49;38.60;55.10
18083;DHT22;9168;51.194;6.840;2022-08-11T12:04:19;38.50;52.50
18083;DHT22;9168;51.194;6.840;2022-08-11T12:06:47;38.60;53.20
18083;DHT22;9168;51.194;6.840;2022-08-11T12:09:15;38.70;53.20
18083;DHT22;9168;51.194;6.840;2022-08-11T12:11:49;38.90;53.20
18083;DHT22;9168;51.194;6.840;2022-08-11T12:14:48;39.10;53.20
18083;DHT22;9168;51.194;6.840;2022-08-11T12:17:15;39.10;50.70
18083;DHT22;9168;51.194;6.840;2022-08-11T12:19:42;39.20;51.00
18083;DHT22;9168;51.194;6.840;2022-08-11T12:22:09;39.30;49.90
18083;DHT22;9168;51.194;6.840;2022-08-11T12:24:55;39.30;50.40
18083;DHT22;9168;51.194;6.840;2022-08-11T12:27:40;39.70;50.60
18083;DHT22;9168;51.194;6.840;2022-08-11T12:30:08;40.00;51.20
18083;DHT22;9168;51.194;6.840;2022-08-11T12:32:37;40.40;50.90
18083;DHT22;9168;51.194;6.840;2022-08-11T12:35:06;40.60;50.70
18083;DHT22;9168;51.194;6.840;2022-08-11T12:37:36;40.90;49.00
18083;DHT22;9168;51.194;6.840;2022-08-11T12:40:09;41.20;49.30
18083;DHT22;9168;51.194;6.840;2022-08-11T12:43:01;40.90;47.70
18083;DHT22;9168;51.194;6.840;2022-08-11T12:45:46;41.10;49.10
18083;DHT22;9168;51.194;6.840;2022-08-11T12:48:17;41.40;48.50
18083;DHT22;9168;51.194;6.840;2022-08-11T12:51:04;41.30;47.30
18083;DHT22;9168;51.194;6.840;2022-08-11T12:53:53;41.10;48.10
18083;DHT22;9168;51.194;6.840;2022-08-11T12:56:23;41.10;47.60
18083;DHT22;9168;51.194;6.840;2022-08-11T12:59:08;41.20;47.70
18083;DHT22;9168;51.194;6.840;2022-08-11T13:01:54;41.60;48.20
18083;DHT22;9168;51.194;6.840;2022-08-11T13:04:39;41.90;47.50
18083;DHT22;9168;51.194;6.840;2022-08-11T13:07:25;42.20;48.00
18083;DHT22;9168;51.194;6.840;2022-08-11T13:09:53;42.50;47.40
18083;DHT22;9168;51.194;6.840;2022-08-11T13:12:23;42.60;46.80
18083;DHT22;9168;51.194;6.840;2022-08-11T13:15:10;42.80;47.20
18083;DHT22;9168;51.194;6.840;2022-08-11T13:17:38;42.90;45.60
18083;DHT22;9168;51.194;6.840;2022-08-11T13:20:08;42.50;45.20
18083;DHT22;9168;51.194;6.840;2022-08-11T13:22:37;42.30;46.50
18083;DHT22;9168;51.194;6.840;2022-08-11T13:25:05;42.40;47.00
18083;DHT22;9168;51.194;6.840;2022-08-11T13:27:35;42.30;46.70
18083;DHT22;9168;51.194;6.840;2022-08-11T13:30:04;42.30;46.70
18083;DHT22;9168;51.194;6.840;2022-08-11T13:32:49;42.20;46.70
18083;DHT22;9168;51.194;6.840;2022-08-11T13:35:17;42.20;47.50
18083;DHT22;9168;51.194;6.840;2022-08-11T13:37:46;42.10;47.00
18083;DHT22;9168;51.194;6.840;2022-08-11T13:40:15;42.10;46.70
18083;DHT22;9168;51.194;6.840;2022-08-11T13:42:46;42.30;47.10
18083;DHT22;9168;51.194;6.840;2022-08-11T13:45:13;42.40;47.10
18083;DHT22;9168;51.194;6.840;2022-08-11T13:47:41;42.40;46.60
18083;DHT22;9168;51.194;6.840;2022-08-11T13:50:09;42.40;45.80
18083;DHT22;9168;51.194;6.840;2022-08-11T13:52:38;42.40;46.20
18083;DHT22;9168;51.194;6.840;2022-08-11T13:55:07;42.40;45.40
18083;DHT22;9168;51.194;6.840;2022-08-11T13:57:36;42.30;45.40
18083;DHT22;9168;51.194;6.840;2022-08-11T14:00:07;42.30;46.10
18083;DHT22;9168;51.194;6.840;2022-08-11T14:02:41;42.30;45.90
18083;DHT22;9168;51.194;6.840;2022-08-11T14:05:12;42.50;46.90
18083;DHT22;9168;51.194;6.840;2022-08-11T14:07:45;42.70;46.10
18083;DHT22;9168;51.194;6.840;2022-08-11T14:10:15;42.80;46.50
18083;DHT22;9168;51.194;6.840;2022-08-11T14:12:50;42.60;44.30
18083;DHT22;9168;51.194;6.840;2022-08-11T14:15:41;42.20;43.40
18083;DHT22;9168;51.194;6.840;2022-08-11T14:18:17;41.90;45.40
18083;DHT22;9168;51.194;6.840;2022-08-11T14:20:49;42.00;44.90
18083;DHT22;9168;51.194;6.840;2022-08-11T14:23:38;42.10;44.60
18083;DHT22;9168;51.194;6.840;2022-08-11T14:26:06;42.00;44.70
18083;DHT22;9168;51.194;6.840;2022-08-11T14:28:53;42.10;44.90
18083;DHT22;9168;51.194;6.840;2022-08-11T14:31:25;42.10;43.60
18083;DHT22;9168;51.194;6.840;2022-08-11T14:33:54;42.10;43.00
18083;DHT22;9168;51.194;6.840;2022-08-11T14:36:24;41.90;44.20
18083;DHT22;9168;51.194;6.840;2022-08-11T14:38:51;41.70;49.50
18083;DHT22;9168;51.194;6.840;2022-08-11T14:41:19;41.40;47.00
18083;DHT22;9168;51.194;6.840;2022-08-11T14:44:05;41.30;44.90
18083;DHT22;9168;51.194;6.840;2022-08-11T14:46:51;41.20;47.00
18083;DHT22;9168;51.194;6.840;2022-08-11T14:49:33;41.20;46.40
18083;DHT22;9168;51.194;6.840;2022-08-11T14:52:03;41.20;46.30
18083;DHT22;9168;51.194;6.840;2022-08-11T14:54:32;40.80;46.50
18083;DHT22;9168;51.194;6.840;2022-08-11T14:57:18;40.40;45.50
18083;DHT22;9168;51.194;6.840;2022-08-11T14:59:47;40.10;47.10
18083;DHT22;9168;51.194;6.840;2022-08-11T15:02:17;39.80;47.90
18083;DHT22;9168;51.194;6.840;2022-08-11T15:05:03;39.20;48.10
18083;DHT22;9168;51.194;6.840;2022-08-11T15:07:31;38.70;47.80
18083;DHT22;9168;51.194;6.840;2022-08-11T15:10:00;38.30;48.20
18083;DHT22;9168;51.194;6.840;2022-08-11T15:12:29;38.00;49.30
18083;DHT22;9168;51.194;6.840;2022-08-11T15:14:57;37.70;49.20
18083;DHT22;9168;51.194;6.840;2022-08-11T15:17:44;37.50;49.60
18083;DHT22;9168;51.194;6.840;2022-08-11T15:20:15;37.40;50.40
18083;DHT22;9168;51.194;6.840;2022-08-11T15:22:59;37.20;50.40
18083;DHT22;9168;51.194;6.840;2022-08-11T15:25:47;37.00;51.30
18083;DHT22;9168;51.194;6.840;2022-08-11T15:28:17;36.80;51.60
18083;DHT22;9168;51.194;6.840;2022-08-11T15:31:03;36.70;51.90
18083;DHT22;9168;51.194;6.840;2022-08-11T15:33:52;36.60;52.00
18083;DHT22;9168;51.194;6.840;2022-08-11T15:36:37;36.40;52.60
18083;DHT22;9168;51.194;6.840;2022-08-11T15:39:26;36.20;52.60
18083;DHT22;9168;51.194;6.840;2022-08-11T15:41:59;36.00;52.30
18083;DHT22;9168;51.194;6.840;2022-08-11T15:44:49;35.80;52.00
18083;DHT22;9168;51.194;6.840;2022-08-11T15:47:49;35.70;52.70
18083;DHT22;9168;51.194;6.840;2022-08-11T15:50:27;35.50;53.20
18083;DHT22;9168;51.194;6.840;2022-08-11T15:52:58;35.40;53.00
18083;DHT22;9168;51.194;6.840;2022-08-11T15:55:26;35.20;53.70
18083;DHT22;9168;51.194;6.840;2022-08-11T15:57:58;35.10;53.90
18083;DHT22;9168;51.194;6.840;2022-08-11T16:00:45;34.90;54.50
18083;DHT22;9168;51.194;6.840;2022-08-11T16:03:41;34.70;54.70
18083;DHT22;9168;51.194;6.840;2022-08-11T16:06:28;34.50;54.70
18083;DHT22;9168;51.194;6.840;2022-08-11T16:08:57;34.40;55.30
18083;DHT22;9168;51.194;6.840;2022-08-11T16:11:28;34.20;54.80
18083;DHT22;9168;51.194;6.840;2022-08-11T16:13:58;34.10;55.20
18083;DHT22;9168;51.194;6.840;2022-08-11T16:16:44;33.90;56.10
18083;DHT22;9168;51.194;6.840;2022-08-11T16:19:12;33.80;56.60
18083;DHT22;9168;51.194;6.840;2022-08-11T16:21:42;33.60;55.10
18083;DHT22;9168;51.194;6.840;2022-08-11T16:24:11;33.50;55.90
18083;DHT22;9168;51.194;6.840;2022-08-11T16:26:41;33.30;55.30
18083;DHT22;9168;51.194;6.840;2022-08-11T16:29:10;33.20;56.20
18083;DHT22;9168;51.194;6.840;2022-08-11T16:31:38;33.00;56.60
18083;DHT22;9168;51.194;6.840;2022-08-11T16:34:06;32.90;57.20
18083;DHT22;9168;51.194;6.840;2022-08-11T16:36:57;32.70;56.40
18083;DHT22;9168;51.194;6.840;2022-08-11T16:39:43;32.60;56.10
18083;DHT22;9168;51.194;6.840;2022-08-11T16:42:11;32.40;56.40
18083;DHT22;9168;51.194;6.840;2022-08-11T16:44:57;32.30;58.10
18083;DHT22;9168;51.194;6.840;2022-08-11T16:47:43;32.20;58.20
18083;DHT22;9168;51.194;6.840;2022-08-11T16:50:10;32.10;57.90
18083;DHT22;9168;51.194;6.840;2022-08-11T16:52:39;31.90;59.30
18083;DHT22;9168;51.194;6.840;2022-08-11T16:55:08;31.80;59.00
18083;DHT22;9168;51.194;6.840;2022-08-11T16:57:36;31.70;59.30
18083;DHT22;9168;51.194;6.840;2022-08-11T17:00:22;31.50;59.50
18083;DHT22;9168;51.194;6.840;2022-08-11T17:02:50;31.40;60.30
18083;DHT22;9168;51.194;6.840;2022-08-11T17:05:37;31.30;61.90
18083;DHT22;9168;51.194;6.840;2022-08-11T17:08:32;31.10;63.80
18083;DHT22;9168;51.194;6.840;2022-08-11T17:11:18;30.80;62.70
18083;DHT22;9168;51.194;6.840;2022-08-11T17:14:10;30.60;63.50
18083;DHT22;9168;51.194;6.840;2022-08-11T17:16:40;30.50;63.70
18083;DHT22;9168;51.194;6.840;2022-08-11T17:19:10;30.50;60.90
18083;DHT22;9168;51.194;6.840;2022-08-11T17:21:40;30.40;61.30
18083;DHT22;9168;51.194;6.840;2022-08-11T17:24:32;30.40;63.20
18083;DHT22;9168;51.194;6.840;2022-08-11T17:27:01;30.30;67.10
18083;DHT22;9168;51.194;6.840;2022-08-11T17:29:33;30.20;69.20
18083;DHT22;9168;51.194;6.840;2022-08-11T17:32:02;30.20;68.40
18083;DHT22;9168;51.194;6.840;2022-08-11T17:34:49;30.10;70.60
18083;DHT22;9168;51.194;6.840;2022-08-11T17:37:36;30.00;65.40
18083;DHT22;9168;51.194;6.840;2022-08-11T17:40:08;29.80;65.30
18083;DHT22;9168;51.194;6.840;2022-08-11T17:42:36;29.80;64.30
18083;DHT22;9168;51.194;6.840;2022-08-11T17:45:22;29.80;65.90
18083;DHT22;9168;51.194;6.840;2022-08-11T17:48:08;29.70;66.20
18083;DHT22;9168;51.194;6.840;2022-08-11T17:50:55;29.70;66.50
18083;DHT22;9168;51.194;6.840;2022-08-11T17:53:24;29.60;66.90
18083;DHT22;9168;51.194;6.840;2022-08-11T17:56:12;29.50;64.60
18083;DHT22;9168;51.194;6.840;2022-08-11T17:58:55;29.40;65.60
18083;DHT22;9168;51.194;6.840;2022-08-11T18:01:40;29.30;66.10
18083;DHT22;9168;51.194;6.840;2022-08-11T18:04:10;29.30;66.40
18083;DHT22;9168;51.194;6.840;2022-08-11T18:06:39;29.20;66.10
18083;DHT22;9168;51.194;6.840;2022-08-11T18:09:09;29.10;66.60
18083;DHT22;9168;51.194;6.840;2022-08-11T18:11:56;29.10;66.70
18083;DHT22;9168;51.194;6.840;2022-08-11T18:14:45;29.00;66.80
18083;DHT22;9168;51.194;6.840;2022-08-11T18:17:30;28.90;67.70
18083;DHT22;9168;51.194;6.840;2022-08-11T18:20:14;28.90;66.80
18083;DHT22;9168;51.194;6.840;2022-08-11T18:23:03;28.80;67.10
18083;DHT22;9168;51.194;6.840;2022-08-11T18:25:49;28.70;67.80
18083;DHT22;9168;51.194;6.840;2022-08-11T18:28:46;28.60;67.00
18083;DHT22;9168;51.194;6.840;2022-08-11T18:31:34;28.50;67.40
18083;DHT22;9168;51.194;6.840;2022-08-11T18:34:27;28.50;66.30
18083;DHT22;9168;51.194;6.840;2022-08-11T18:37:15;28.40;66.30
18083;DHT22;9168;51.194;6.840;2022-08-11T18:40:04;28.40;66.30
18083;DHT22;9168;51.194;6.840;2022-08-11T18:42:53;28.30;69.30
18083;DHT22;9168;51.194;6.840;2022-08-11T18:45:40;28.20;68.20
18083;DHT22;9168;51.194;6.840;2022-08-11T18:48:26;28.20;68.30
18083;DHT22;9168;51.194;6.840;2022-08-11T18:51:14;28.10;69.10
18083;DHT22;9168;51.194;6.840;2022-08-11T18:54:01;28.00;69.00
18083;DHT22;9168;51.194;6.840;2022-08-11T18:56:47;27.90;70.00
18083;DHT22;9168;51.194;6.840;2022-08-11T18:59:36;27.80;68.60
18083;DHT22;9168;51.194;6.840;2022-08-11T19:02:23;27.70;68.00
18083;DHT22;9168;51.194;6.840;2022-08-11T19:05:10;27.70;68.00
18083;DHT22;9168;51.194;6.840;2022-08-11T19:07:57;27.70;68.00
18083;DHT22;9168;51.194;6.840;2022-08-11T19:10:43;27.60;69.50
18083;DHT22;9168;51.194;6.840;2022-08-11T19:13:29;27.50;70.90
18083;DHT22;9168;51.194;6.840;2022-08-11T19:16:15;27.50;70.10
18083;DHT22;9168;51.194;6.840;2022-08-11T19:19:02;27.40;69.10
18083;DHT22;9168;51.194;6.840;2022-08-11T19:21:48;27.40;69.60
18083;DHT22;9168;51.194;6.840;2022-08-11T19:24:35;27.30;69.60
18083;DHT22;9168;51.194;6.840;2022-08-11T19:27:21;27.20;70.40
18083;DHT22;9168;51.194;6.840;2022-08-11T19:30:07;27.20;70.40